Главная страница
METAR-TAF:

METAR-TAF

Аэропорты :

Зонгулдак, Турция

широта: 41-27N, долгота: 031-48E, высота над уровнем моря: 136 м

Текущие метеонаблюдения

Эта сводка был подготовлена 12 часа и 56 минут назад, в 13:50 UTC
Ветер 12 Узел от северный, изменяющийся между северо-западный и северо-северо-восточный
Температура 26°C
Влажность 70%
Давление 1014 hPa
Видимость 10 км и более
небольшая облачность на высоте 3000 фута, мощно-кучевые.

METAR: LTAS 201350Z 35012KT 320V020 9999 FEW030TCU 26/20 Q1014

Время: 05:46 (02:46 UTC)

Прогноз

Эта сводка был подготовлена 1 час и 6 минут назад, в 01:40 UTC
Прогноз действительный с 21-го 03 UTC до 21-го 12 UTC
Ветер 2 Узел переменных направлений
Видимость 10 км и более
Отдельные облака на высоте 3500 фута

TAF: LTAS 210140Z 2103/2112 VRB02KT 9999 SCT035

Метеонаблюдения и прогнозы для более 4000 аэропортов (сводки METAR и TAF).

Имеющиеся станции представлены на карте желтыми и красными точками.

Чтобы увидеть название станции, наведите на нее мышь.

Затем щелкните, чтобы увидеть метеонаблюдения и метеопрогнозы.

Управление картой: чтобы увеличить масштаб, щелкните зеленые кнопки с черным крестиком; чтобы уменьшить масштаб, щелкните зеленую кнопку с тире; для просмотра соседних карт щелкайте зеленые стрелки.


METAR-TAF: